createdAt,value
2023-04-08T00:02:17.957Z,26.10
2023-04-08T00:04:44.974Z,29.98
2023-04-08T00:07:12.042Z,28.40
2023-04-08T00:09:39.079Z,27.55
2023-04-08T00:12:06.612Z,28.13
2023-04-08T00:14:35.365Z,31.05
2023-04-08T00:17:02.333Z,28.63
2023-04-08T00:19:29.352Z,28.73
2023-04-08T00:21:56.324Z,30.80
2023-04-08T00:24:23.900Z,27.30
2023-04-08T00:26:50.856Z,28.23
2023-04-08T00:29:17.908Z,30.10
2023-04-08T00:31:46.678Z,32.83
2023-04-08T00:34:13.846Z,26.90
2023-04-08T00:36:40.996Z,28.27
2023-04-08T00:39:08.022Z,32.40
2023-04-08T00:41:36.166Z,33.78
2023-04-08T00:44:03.586Z,32.25
2023-04-08T00:46:31.909Z,32.13
2023-04-08T00:49:02.301Z,32.22
2023-04-08T00:51:29.420Z,31.55
2023-04-08T00:53:56.524Z,31.85
2023-04-08T00:56:24.395Z,30.65
2023-04-08T00:58:55.126Z,30.60
2023-04-08T01:01:29.571Z,34.83
2023-04-08T01:04:02.885Z,31.65
2023-04-08T01:06:34.019Z,35.42
2023-04-08T01:09:05.286Z,30.48
2023-04-08T01:11:34.844Z,29.35
2023-04-08T01:14:06.526Z,31.40
2023-04-08T01:16:35.110Z,30.95
2023-04-08T01:19:06.194Z,30.02
2023-04-08T01:21:33.212Z,30.67
2023-04-08T01:24:09.752Z,32.28
2023-04-08T01:26:38.996Z,34.40
2023-04-08T01:29:06.615Z,32.70
2023-04-08T01:31:36.192Z,29.38
2023-04-08T01:34:04.851Z,35.78
2023-04-08T01:36:33.062Z,28.80
2023-04-08T01:39:02.058Z,30.73
2023-04-08T01:41:30.294Z,33.47
2023-04-08T01:44:00.789Z,26.42
2023-04-08T01:46:31.099Z,27.17
2023-04-08T01:48:59.711Z,32.08
2023-04-08T01:51:29.738Z,31.35
2023-04-08T01:53:56.973Z,27.40
2023-04-08T01:56:26.452Z,31.00
2023-04-08T01:58:55.480Z,29.63
2023-04-08T02:01:27.108Z,30.65
2023-04-08T02:03:57.740Z,31.35
2023-04-08T02:06:27.741Z,30.55
2023-04-08T02:08:56.853Z,32.38
2023-04-08T02:11:25.081Z,33.90
2023-04-08T02:13:53.231Z,32.20
2023-04-08T02:16:29.656Z,33.53
2023-04-08T02:19:00.882Z,29.75
2023-04-08T02:21:34.412Z,29.55
2023-04-08T02:24:08.183Z,30.17
2023-04-08T02:26:37.317Z,30.23
2023-04-08T02:29:05.830Z,29.20
2023-04-08T02:31:34.950Z,28.20
2023-04-08T02:34:02.726Z,32.15
2023-04-08T02:36:33.569Z,30.60
2023-04-08T02:39:03.534Z,30.45
2023-04-08T02:41:31.491Z,29.67
2023-04-08T02:43:58.782Z,29.50
2023-04-08T02:46:25.750Z,35.53
2023-04-08T02:48:54.335Z,33.70
2023-04-08T02:51:21.690Z,36.03
2023-04-08T02:53:48.836Z,35.55
2023-04-08T02:56:16.241Z,34.00
2023-04-08T02:58:43.240Z,32.15
2023-04-08T03:01:10.343Z,32.55
2023-04-08T03:03:37.449Z,36.55
2023-04-08T03:06:05.942Z,31.52
2023-04-08T03:08:33.820Z,29.60
2023-04-08T03:11:01.023Z,29.70
2023-04-08T03:13:29.821Z,29.90
2023-04-08T03:15:56.858Z,31.63
2023-04-08T03:18:25.707Z,29.75
2023-04-08T03:20:52.697Z,30.83
2023-04-08T03:23:20.963Z,32.72
2023-04-08T03:25:47.973Z,31.08
2023-04-08T03:28:14.904Z,33.85
2023-04-08T03:30:42.113Z,33.17
2023-04-08T03:33:09.150Z,32.20
2023-04-08T03:35:37.495Z,29.23
2023-04-08T03:38:04.544Z,30.17
2023-04-08T03:40:33.041Z,31.60
2023-04-08T03:42:59.964Z,31.52
2023-04-08T03:45:26.952Z,30.98
2023-04-08T03:47:54.327Z,33.97
2023-04-08T03:50:21.623Z,31.88
2023-04-08T03:52:48.525Z,31.83
2023-04-08T03:55:15.694Z,33.45
2023-04-08T03:57:44.313Z,32.00
2023-04-08T04:00:12.159Z,33.90
2023-04-08T04:02:41.716Z,30.75
2023-04-08T04:05:09.116Z,33.42
2023-04-08T04:07:36.304Z,28.92
2023-04-08T04:10:03.458Z,32.17
2023-04-08T04:12:30.699Z,32.67
2023-04-08T04:14:59.060Z,35.33
2023-04-08T04:17:26.328Z,31.38
2023-04-08T04:19:53.333Z,34.08
2023-04-08T04:22:20.321Z,33.63
2023-04-08T04:24:48.440Z,38.03
2023-04-08T04:27:15.525Z,39.80
2023-04-08T04:29:42.537Z,35.53
2023-04-08T04:32:10.884Z,40.17
2023-04-08T04:34:37.994Z,40.20
2023-04-08T04:37:05.356Z,36.53
2023-04-08T04:39:32.775Z,36.65
2023-04-08T04:41:59.939Z,35.05
2023-04-08T04:44:27.248Z,38.17
2023-04-08T04:46:54.552Z,34.22
2023-04-08T04:49:23.097Z,35.58
2023-04-08T04:51:50.076Z,35.03
2023-04-08T04:54:17.087Z,32.25
2023-04-08T04:56:44.033Z,32.28
2023-04-08T04:59:10.978Z,34.20
2023-04-08T05:01:38.044Z,36.72
2023-04-08T05:04:05.472Z,31.83
2023-04-08T05:06:33.943Z,33.88
2023-04-08T05:09:01.252Z,41.80
2023-04-08T05:11:28.222Z,39.55
2023-04-08T05:13:55.270Z,39.50
2023-04-08T05:16:22.385Z,36.42
2023-04-08T05:18:49.524Z,40.10
2023-04-08T05:21:17.410Z,45.75
2023-04-08T05:23:45.734Z,42.10
2023-04-08T05:26:13.527Z,35.33
2023-04-08T05:28:41.948Z,46.45
2023-04-08T05:31:09.040Z,38.17
2023-04-08T05:33:36.249Z,39.90
2023-04-08T05:36:06.744Z,34.78
2023-04-08T05:38:34.223Z,35.45
2023-04-08T05:41:02.676Z,37.20
2023-04-08T05:43:29.752Z,38.70
2023-04-08T05:45:56.656Z,33.38
2023-04-08T05:48:23.567Z,35.67
2023-04-08T05:50:51.023Z,36.75
2023-04-08T05:53:17.982Z,35.28
2023-04-08T05:55:45.087Z,32.72
2023-04-08T05:58:13.660Z,32.80
2023-04-08T06:00:41.092Z,37.67
2023-04-08T06:03:08.130Z,32.30
2023-04-08T06:05:35.484Z,29.88
2023-04-08T06:08:05.676Z,31.45
2023-04-08T06:10:33.092Z,29.25
2023-04-08T06:13:00.196Z,30.52
2023-04-08T06:15:28.705Z,28.35
2023-04-08T06:17:55.666Z,24.42
2023-04-08T06:20:22.981Z,26.95
2023-04-08T06:22:49.919Z,27.60
2023-04-08T06:25:17.143Z,27.25
2023-04-08T06:27:44.103Z,31.50
2023-04-08T06:30:11.666Z,26.92
2023-04-08T06:32:40.017Z,23.58
2023-04-08T06:35:08.519Z,31.23
2023-04-08T06:37:38.749Z,23.77
2023-04-08T06:40:07.002Z,25.70
2023-04-08T06:42:34.001Z,23.10
2023-04-08T06:45:11.441Z,23.65
2023-04-08T06:47:39.874Z,22.83
2023-04-08T06:50:07.849Z,23.38
2023-04-08T06:52:34.822Z,25.08
2023-04-08T06:55:01.837Z,20.88
2023-04-08T06:57:28.813Z,24.63
2023-04-08T06:59:56.094Z,21.35
2023-04-08T07:02:23.434Z,24.17
2023-04-08T07:04:51.813Z,26.60
2023-04-08T07:07:19.138Z,23.40
2023-04-08T07:09:46.816Z,21.95
2023-04-08T07:12:13.835Z,21.73
2023-04-08T07:14:41.092Z,28.60
2023-04-08T07:17:08.438Z,21.98
2023-04-08T07:19:36.073Z,23.73
2023-04-08T07:22:04.404Z,20.58
2023-04-08T07:24:31.386Z,21.30
2023-04-08T07:26:58.367Z,20.05
2023-04-08T07:29:25.362Z,24.13
2023-04-08T07:31:52.337Z,23.05
2023-04-08T07:34:19.338Z,22.95
2023-04-08T07:36:46.406Z,21.25
2023-04-08T07:39:14.809Z,24.13
2023-04-08T07:41:41.909Z,22.13
2023-04-08T07:44:08.871Z,24.63
2023-04-08T07:46:38.693Z,22.80
2023-04-08T07:49:05.794Z,22.25
2023-04-08T07:51:32.787Z,23.90
2023-04-08T07:54:00.268Z,24.02
2023-04-08T07:56:28.854Z,21.75
2023-04-08T07:58:56.440Z,23.10
2023-04-08T08:01:24.514Z,25.50
2023-04-08T08:03:52.898Z,24.92
2023-04-08T08:06:20.836Z,22.27
2023-04-08T08:08:47.935Z,20.10
2023-04-08T08:11:14.969Z,24.90
2023-04-08T08:13:43.434Z,23.67
2023-04-08T08:16:12.034Z,20.38
2023-04-08T08:18:40.565Z,22.30
2023-04-08T08:21:08.098Z,23.02
2023-04-08T08:23:35.068Z,20.15
2023-04-08T08:26:03.106Z,22.13
2023-04-08T08:28:30.122Z,18.40
2023-04-08T08:30:58.814Z,19.77
2023-04-08T08:33:26.306Z,20.75
2023-04-08T08:35:53.416Z,25.50
2023-04-08T08:38:20.498Z,19.58
2023-04-08T08:40:55.010Z,21.35
2023-04-08T08:43:22.454Z,21.50
2023-04-08T08:45:49.947Z,19.88
2023-04-08T08:48:18.375Z,16.80
2023-04-08T08:50:46.292Z,22.90
2023-04-08T08:53:13.259Z,20.40
2023-04-08T08:56:05.692Z,19.02
2023-04-08T08:58:28.218Z,20.73
2023-04-08T09:00:55.548Z,20.08
2023-04-08T09:03:25.816Z,18.10
2023-04-08T09:05:54.528Z,15.98
2023-04-08T09:08:26.350Z,19.90
2023-04-08T09:10:53.438Z,17.77
2023-04-08T09:13:22.706Z,22.35
2023-04-08T09:16:02.086Z,19.00
2023-04-08T09:18:31.051Z,16.88
2023-04-08T09:21:00.076Z,19.55
2023-04-08T09:23:38.132Z,33.33
2023-04-08T09:26:08.796Z,16.75
2023-04-08T09:28:35.771Z,14.13
2023-04-08T09:31:18.567Z,13.00
2023-04-08T09:33:48.190Z,20.83
2023-04-08T09:36:16.134Z,16.63
2023-04-08T09:38:43.459Z,16.13
2023-04-08T09:41:14.276Z,13.15
2023-04-08T09:43:44.065Z,17.23
2023-04-08T09:46:12.837Z,16.65
2023-04-08T09:48:46.820Z,19.38
2023-04-08T09:51:16.358Z,11.43
2023-04-08T09:53:48.040Z,18.10
2023-04-08T09:56:19.745Z,15.35
2023-04-08T09:58:54.709Z,15.02
2023-04-08T10:01:28.241Z,12.75
2023-04-08T10:03:59.444Z,14.05
2023-04-08T10:06:31.450Z,16.90
2023-04-08T10:08:59.263Z,9.77
2023-04-08T10:11:26.689Z,12.90
2023-04-08T10:13:53.849Z,12.05
2023-04-08T10:16:22.425Z,13.98
2023-04-08T10:18:52.967Z,13.45
2023-04-08T10:21:42.533Z,15.35
2023-04-08T10:24:10.636Z,15.88
2023-04-08T10:26:40.661Z,13.75
2023-04-08T10:29:43.533Z,20.75
2023-04-08T10:32:28.829Z,17.30
2023-04-08T10:34:56.131Z,16.98
2023-04-08T10:37:24.562Z,15.77
2023-04-08T10:39:54.599Z,16.13
2023-04-08T10:42:27.663Z,24.50
2023-04-08T10:44:54.720Z,19.10
2023-04-08T10:47:26.363Z,18.35
2023-04-08T10:49:53.373Z,14.73
2023-04-08T10:52:21.609Z,15.70
2023-04-08T10:54:50.398Z,13.75
2023-04-08T10:57:24.728Z,15.32
2023-04-08T10:59:51.664Z,12.40
2023-04-08T11:02:18.797Z,15.48
2023-04-08T11:04:47.840Z,10.40
2023-04-08T11:07:16.086Z,8.35
2023-04-08T11:09:43.631Z,9.55
2023-04-08T11:12:12.722Z,9.65
2023-04-08T11:14:41.322Z,11.07
2023-04-08T11:17:09.405Z,7.22
2023-04-08T11:19:37.137Z,9.50
2023-04-08T11:22:05.633Z,7.82
2023-04-08T11:24:32.667Z,7.45
2023-04-08T11:26:59.924Z,8.13
2023-04-08T11:29:29.173Z,7.45
2023-04-08T11:31:57.273Z,5.95
2023-04-08T11:34:25.131Z,5.35
2023-04-08T11:36:52.184Z,7.68
2023-04-08T11:39:23.318Z,7.00
2023-04-08T11:41:50.310Z,6.20
2023-04-08T11:44:17.374Z,6.95
2023-04-08T11:46:55.605Z,5.57
2023-04-08T11:49:22.704Z,5.63
2023-04-08T11:51:57.786Z,5.95
2023-04-08T11:54:29.077Z,6.10
2023-04-08T11:56:58.308Z,5.93
2023-04-08T11:59:26.834Z,6.28
2023-04-08T12:01:57.206Z,5.93
2023-04-08T12:04:24.372Z,11.55
2023-04-08T12:06:52.516Z,10.07
2023-04-08T12:09:19.601Z,10.57
2023-04-08T12:11:46.849Z,12.68
2023-04-08T12:14:13.982Z,12.18
2023-04-08T12:16:41.009Z,8.63
2023-04-08T12:19:09.384Z,12.57
2023-04-08T12:21:36.753Z,10.07
2023-04-08T12:24:03.854Z,11.38
2023-04-08T12:26:31.341Z,12.18
2023-04-08T12:28:58.327Z,11.82
2023-04-08T12:31:27.803Z,14.50
2023-04-08T12:33:54.857Z,11.85
2023-04-08T12:36:23.310Z,10.70
2023-04-08T12:38:50.797Z,9.90
2023-04-08T12:41:20.412Z,8.70
2023-04-08T12:43:47.364Z,8.27
2023-04-08T12:46:14.359Z,9.95
2023-04-08T12:48:41.300Z,10.13
2023-04-08T12:51:10.430Z,13.90
2023-04-08T12:53:38.794Z,12.60
2023-04-08T12:56:06.603Z,11.48
2023-04-08T12:58:33.759Z,11.68
2023-04-08T13:01:00.852Z,11.55
2023-04-08T13:03:30.603Z,10.57
2023-04-08T13:05:59.158Z,12.45
2023-04-08T13:08:26.463Z,14.27
2023-04-08T13:10:55.319Z,8.93
2023-04-08T13:13:22.283Z,11.30
2023-04-08T13:15:49.537Z,11.35
2023-04-08T13:18:17.085Z,9.52
2023-04-08T13:20:44.023Z,8.63
2023-04-08T13:23:11.062Z,9.73
2023-04-08T13:25:38.041Z,10.95
2023-04-08T13:28:06.528Z,12.77
2023-04-08T13:30:33.518Z,12.00
2023-04-08T13:33:00.527Z,11.13
2023-04-08T13:35:27.879Z,10.73
2023-04-08T13:37:55.091Z,10.15
2023-04-08T13:40:22.373Z,9.98
2023-04-08T13:42:49.632Z,10.27
2023-04-08T13:45:18.514Z,11.13
2023-04-08T13:47:46.073Z,11.93
2023-04-08T13:50:13.560Z,10.30
2023-04-08T13:52:41.410Z,16.33
2023-04-08T13:55:08.846Z,11.88
2023-04-08T13:57:35.885Z,9.45
2023-04-08T14:00:03.301Z,9.77
2023-04-08T14:02:39.247Z,7.75
2023-04-08T14:05:07.708Z,10.00
2023-04-08T14:07:35.079Z,10.55
2023-04-08T14:10:02.555Z,10.88
2023-04-08T14:12:30.336Z,13.20
2023-04-08T14:14:57.967Z,56.88
2023-04-08T14:17:25.796Z,99.10
2023-04-08T14:19:54.737Z,44.85
2023-04-08T14:22:22.446Z,18.17
2023-04-08T14:24:50.025Z,20.55
2023-04-08T14:27:17.428Z,27.75
2023-04-08T14:29:44.848Z,16.02
2023-04-08T14:32:12.862Z,74.60
2023-04-08T14:34:40.177Z,18.92
2023-04-08T14:37:08.950Z,23.48
2023-04-08T14:39:36.760Z,13.68
2023-04-08T14:42:04.217Z,11.63
2023-04-08T14:44:31.705Z,69.13
2023-04-08T14:46:59.145Z,682.28
2023-04-08T14:49:26.609Z,506.60
2023-04-08T14:51:53.923Z,339.98
2023-04-08T14:54:22.802Z,437.65
2023-04-08T14:56:50.370Z,47.28
2023-04-08T14:59:17.850Z,218.65
2023-04-08T15:01:46.023Z,240.20
2023-04-08T15:04:16.802Z,577.58
2023-04-08T15:06:45.151Z,144.80
2023-04-08T15:09:12.866Z,68.97
2023-04-08T15:11:41.942Z,99.82
2023-04-08T15:14:09.639Z,39.50
2023-04-08T15:16:37.659Z,147.68
2023-04-08T15:19:06.541Z,138.57
2023-04-08T15:21:34.234Z,350.20
2023-04-08T15:24:02.262Z,62.78
2023-04-08T15:26:30.202Z,117.20
2023-04-08T15:28:59.929Z,35.67
2023-04-08T15:31:27.904Z,112.15
2023-04-08T15:33:55.534Z,30.85
2023-04-08T15:36:22.685Z,23.30
2023-04-08T15:38:50.043Z,31.17
2023-04-08T15:41:18.249Z,18.83
2023-04-08T15:43:45.478Z,17.23
2023-04-08T15:46:17.737Z,22.20
2023-04-08T15:48:45.298Z,15.43
2023-04-08T15:51:13.629Z,16.30
2023-04-08T15:53:41.122Z,16.45
2023-04-08T15:56:12.829Z,14.75
2023-04-08T15:58:40.013Z,17.67
2023-04-08T16:01:07.030Z,20.42
2023-04-08T16:03:35.642Z,18.73
2023-04-08T16:06:03.057Z,15.52
2023-04-08T16:08:30.767Z,17.80
2023-04-08T16:11:01.510Z,19.33
2023-04-08T16:13:31.941Z,19.08
2023-04-08T16:16:02.303Z,17.67
2023-04-08T16:18:30.103Z,18.40
2023-04-08T16:20:59.040Z,17.08
2023-04-08T16:23:27.190Z,17.70
2023-04-08T16:25:55.061Z,19.25
2023-04-08T16:28:23.047Z,17.13
2023-04-08T16:30:51.132Z,20.33
2023-04-08T16:33:18.932Z,19.35
2023-04-08T16:35:47.227Z,80.90
2023-04-08T16:38:17.336Z,41.85
2023-04-08T16:40:47.475Z,44.10
2023-04-08T16:43:15.836Z,28.70
2023-04-08T16:45:44.006Z,19.23
2023-04-08T16:48:13.439Z,16.75
2023-04-08T16:50:41.754Z,17.80
2023-04-08T16:53:09.737Z,19.02
2023-04-08T16:55:39.099Z,20.27
2023-04-08T16:58:07.074Z,19.30
2023-04-08T17:00:37.918Z,20.90
2023-04-08T17:03:06.199Z,18.83
2023-04-08T17:05:39.972Z,17.80
2023-04-08T17:08:07.314Z,15.68
2023-04-08T17:10:35.122Z,19.35
2023-04-08T17:13:05.301Z,17.52
2023-04-08T17:15:35.674Z,17.95
2023-04-08T17:18:03.873Z,16.52
2023-04-08T17:20:31.726Z,18.80
2023-04-08T17:22:59.644Z,19.27
2023-04-08T17:25:27.602Z,19.35
2023-04-08T17:27:55.661Z,20.17
2023-04-08T17:30:25.922Z,19.17
2023-04-08T17:32:53.982Z,16.05
2023-04-08T17:35:22.346Z,18.67
2023-04-08T17:37:51.019Z,20.35
2023-04-08T17:40:19.244Z,19.30
2023-04-08T17:42:49.888Z,17.80
2023-04-08T17:45:18.008Z,19.38
2023-04-08T17:47:47.577Z,19.27
2023-04-08T17:50:15.953Z,14.65
2023-04-08T17:52:45.118Z,14.68
2023-04-08T17:55:17.683Z,17.23
2023-04-08T17:57:45.732Z,13.82
2023-04-08T18:00:13.867Z,13.50
2023-04-08T18:02:42.671Z,12.07
2023-04-08T18:05:12.549Z,16.70
2023-04-08T18:07:40.490Z,33.08
2023-04-08T18:10:10.086Z,38.50
2023-04-08T18:12:38.548Z,36.45
2023-04-08T18:15:07.303Z,23.73
2023-04-08T18:17:35.724Z,15.15
2023-04-08T18:20:04.585Z,14.18
2023-04-08T18:22:33.904Z,17.55
2023-04-08T18:25:05.338Z,19.20
2023-04-08T18:27:33.413Z,13.50
2023-04-08T18:30:04.188Z,19.80
2023-04-08T18:32:32.539Z,20.30
2023-04-08T18:35:00.531Z,16.45
2023-04-08T18:37:28.570Z,12.57
2023-04-08T18:40:00.546Z,12.10
2023-04-08T18:42:28.525Z,14.85
2023-04-08T18:44:56.703Z,15.27
2023-04-08T18:47:24.686Z,13.25
2023-04-08T18:49:52.854Z,15.20
2023-04-08T18:52:20.783Z,15.55
2023-04-08T18:54:49.120Z,16.52
2023-04-08T18:57:18.566Z,15.85
2023-04-08T18:59:48.098Z,15.57
2023-04-08T19:02:17.178Z,18.20
2023-04-08T19:04:44.893Z,17.30
2023-04-08T19:07:12.960Z,14.35
2023-04-08T19:09:40.212Z,14.25
2023-04-08T19:12:07.998Z,16.05
2023-04-08T19:14:38.332Z,14.25
2023-04-08T19:17:06.731Z,14.93
2023-04-08T19:19:35.468Z,56.83
2023-04-08T19:22:07.296Z,24.17
2023-04-08T19:24:35.532Z,19.52
2023-04-08T19:27:03.822Z,14.45
2023-04-08T19:29:33.855Z,13.70
2023-04-08T19:32:04.025Z,14.23
2023-04-08T19:34:32.291Z,10.43
2023-04-08T19:37:00.932Z,11.93
2023-04-08T19:39:29.306Z,12.77
2023-04-08T19:41:57.416Z,12.98
2023-04-08T19:44:25.504Z,13.25
2023-04-08T19:46:53.500Z,11.48
2023-04-08T19:49:23.045Z,13.32
2023-04-08T19:51:51.266Z,12.27
2023-04-08T19:54:19.220Z,14.40
2023-04-08T19:56:48.247Z,14.52
2023-04-08T19:59:17.535Z,13.65
2023-04-08T20:01:45.711Z,13.77
2023-04-08T20:04:13.803Z,13.88
2023-04-08T20:06:44.539Z,13.52
2023-04-08T20:09:12.782Z,13.75
2023-04-08T20:11:40.861Z,16.70
2023-04-08T20:14:08.737Z,16.10
2023-04-08T20:16:36.715Z,15.57
2023-04-08T20:19:04.621Z,12.95
2023-04-08T20:21:33.511Z,14.10
2023-04-08T20:24:03.115Z,16.55
2023-04-08T20:26:31.071Z,14.90
2023-04-08T20:28:59.225Z,16.52
2023-04-08T20:31:27.481Z,17.02
2023-04-08T20:33:56.309Z,18.48
2023-04-08T20:36:25.003Z,17.77
2023-04-08T20:38:53.168Z,17.50
2023-04-08T20:41:24.025Z,16.75
2023-04-08T20:43:53.102Z,17.55
2023-04-08T20:46:21.639Z,18.17
2023-04-08T20:48:49.749Z,18.83
2023-04-08T20:51:18.191Z,18.17
2023-04-08T20:53:46.600Z,17.63
2023-04-08T20:56:17.139Z,17.40
2023-04-08T20:58:46.788Z,18.58
2023-04-08T21:01:14.810Z,19.80
2023-04-08T21:03:51.483Z,23.10
2023-04-08T21:06:24.455Z,19.75
2023-04-08T21:08:56.755Z,22.92
2023-04-08T21:11:29.356Z,22.08
2023-04-08T21:14:03.352Z,20.33
2023-04-08T21:16:35.933Z,21.00
2023-04-08T21:19:08.346Z,21.80
2023-04-08T21:21:40.809Z,21.40
2023-04-08T21:24:13.715Z,19.05
2023-04-08T21:26:45.956Z,19.42
2023-04-08T21:29:19.542Z,21.55
2023-04-08T21:31:56.984Z,19.33
2023-04-08T21:34:29.689Z,21.52
2023-04-08T21:37:05.836Z,18.58
2023-04-08T21:39:37.631Z,20.00
2023-04-08T21:42:10.748Z,17.20
2023-04-08T21:44:44.257Z,15.00
2023-04-08T21:47:13.493Z,34.03
2023-04-08T21:49:44.141Z,22.75
2023-04-08T21:52:13.912Z,20.73
2023-04-08T21:54:45.480Z,18.27
2023-04-08T21:57:13.917Z,17.52
2023-04-08T21:59:42.587Z,17.25
2023-04-08T22:02:11.570Z,15.77
2023-04-08T22:04:38.860Z,18.70
2023-04-08T22:07:06.304Z,16.15
2023-04-08T22:09:33.386Z,15.98
2023-04-08T22:12:02.160Z,17.88
2023-04-08T22:14:29.227Z,16.20
2023-04-08T22:16:57.691Z,18.42
2023-04-08T22:19:24.814Z,19.30
2023-04-08T22:21:51.853Z,17.88
2023-04-08T22:24:18.841Z,16.38
2023-04-08T22:26:45.856Z,17.13
2023-04-08T22:29:12.915Z,16.23
2023-04-08T22:31:40.084Z,17.02
2023-04-08T22:34:08.464Z,16.02
2023-04-08T22:36:35.450Z,15.50
2023-04-08T22:39:02.360Z,13.52
2023-04-08T22:41:29.277Z,15.95
2023-04-08T22:43:56.249Z,19.70
2023-04-08T22:46:23.485Z,14.60
2023-04-08T22:48:50.912Z,14.85
2023-04-08T22:51:19.528Z,15.57
2023-04-08T22:53:46.714Z,14.25
2023-04-08T22:56:14.070Z,15.98
2023-04-08T22:58:41.170Z,17.73
2023-04-08T23:01:12.340Z,16.45
2023-04-08T23:03:39.533Z,12.63
2023-04-08T23:06:06.690Z,13.30
2023-04-08T23:08:35.419Z,10.63
2023-04-08T23:11:02.412Z,11.23
2023-04-08T23:13:29.624Z,11.40
2023-04-08T23:15:56.739Z,10.82
2023-04-08T23:18:23.668Z,12.00
2023-04-08T23:20:51.901Z,14.40
2023-04-08T23:23:19.197Z,13.30
2023-04-08T23:25:48.373Z,13.75
2023-04-08T23:28:15.338Z,15.82
2023-04-08T23:30:42.561Z,13.82
2023-04-08T23:33:09.693Z,13.38
2023-04-08T23:35:38.864Z,13.57
2023-04-08T23:38:05.932Z,12.02
2023-04-08T23:40:33.217Z,14.10
2023-04-08T23:43:01.566Z,11.48
2023-04-08T23:45:28.529Z,12.20
2023-04-08T23:47:55.677Z,14.27
2023-04-08T23:50:23.114Z,16.13
2023-04-08T23:52:50.239Z,14.25
2023-04-08T23:55:17.557Z,14.40
2023-04-08T23:57:44.807Z,16.85
